Mc Alister, New Mexico
Current Conditions -  °F | °C
As of 3:53 PM on Wednesday 17 Dec 2014 (Local Time) from KTCC Reporting Station
Few Clouds Few Clouds  
Wind Chill: 55°   Ceiling: Unl
Heat Index: 55°   Visibility: 10mi
Dew Point: 30°   Wind: 15mph
Humidity: 38%   Direction: 240°WSW
Pressure: 29.88"   Gusts: NA
Location:  34.7422°N, 103.654°W
Report Text: KTCC 172253Z AUTO 24013KT 10SM FEW090 13/M01 A2988 RMK AO2 SLP101 T01281011
Loading
Personal Weather Stations






























Interactive Weather Map New forecast layout! Learn more

10-Day Weather Forecast

Advertisements
Track Severe Weather on mobile